Terminal Aerodrome Forecast
Issued by NWS Chicago, IL

Home | Current Version | Previous Version | Text Only | Print | Product List | Glossary Off
Versions: 1 2 3 4 5 6 7 8 9 10 11 12 13 14 15 16 17 18 19 20 21

955
FTUS43 KLOT 201731
TAFRFD
TAF
KRFD 201731Z 2018/2118 22015G25KT P6SM BKN250
     FM210300 21016G23KT P6SM SCT200 WS012/22050KT
     FM210800 22013KT P6SM BKN150
     FM211500 30016G23KT P6SM BKN100=

USA.gov is the U.S. government's official web portal to all federal, state and local government web resources and services.